Time;durP1;ratioP1;P1;durP2;ratioP2;P2;SDS_P1;SDS_P2;PMS_P1;PMS_P2;Temp;Humidity;BMP_temperature;BMP_pressure;BME280_temperature;BME280_humidity;BME280_pressure;Samples;Min_cycle;Max_cycle;Signal;HPM_P1;HPM_P2
2022/03/02 00:01:28;;;;;;;42.85;27.40;;;4.70;99.90;;;;;;5029462;28;20029;-47
2022/03/02 00:03:53;;;;;;;43.10;26.67;;;4.40;99.90;;;;;;5031027;28;20472;-48
2022/03/02 00:06:19;;;;;;;44.38;27.48;;;4.70;99.90;;;;;;5030289;28;20037;-48
2022/03/02 00:08:45;;;;;;;42.42;26.80;;;4.60;99.90;;;;;;5031016;28;20037;-47
2022/03/02 00:11:11;;;;;;;40.42;26.50;;;5.30;99.90;;;;;;5028617;28;20061;-48
2022/03/02 00:13:37;;;;;;;42.58;26.90;;;4.60;99.90;;;;;;5030715;28;20059;-48
2022/03/02 00:16:04;;;;;;;44.58;27.13;;;4.60;99.90;;;;;;5030698;28;20072;-46
2022/03/02 00:18:29;;;;;;;38.80;25.63;;;4.60;99.90;;;;;;5028825;28;20045;-49
2022/03/02 00:20:55;;;;;;;41.28;25.55;;;4.50;99.90;;;;;;5030583;28;20042;-47
2022/03/02 00:23:21;;;;;;;40.20;26.05;;;4.60;99.90;;;;;;5030526;28;20077;-49
2022/03/02 00:25:47;;;;;;;45.22;26.33;;;4.60;99.90;;;;;;5030549;28;20069;-46
2022/03/02 00:28:13;;;;;;;42.67;25.92;;;4.60;99.90;;;;;;5030454;28;20084;-47
2022/03/02 00:30:40;;;;;;;40.22;25.00;;;4.50;99.90;;;;;;5030651;28;20428;-50
2022/03/02 00:33:06;;;;;;;43.83;26.77;;;4.60;99.90;;;;;;5030350;28;20049;-48
2022/03/02 00:35:31;;;;;;;43.92;25.95;;;4.60;99.90;;;;;;5030523;28;20048;-49
2022/03/02 00:37:57;;;;;;;43.53;26.40;;;5.40;99.90;;;;;;5030849;28;20128;-48
2022/03/02 00:40:23;;;;;;;43.55;27.05;;;4.50;99.90;;;;;;5030114;28;20052;-47
2022/03/02 00:42:49;;;;;;;44.10;27.40;;;4.50;99.90;;;;;;5030401;28;20104;-48
2022/03/02 00:45:15;;;;;;;45.55;27.85;;;4.50;99.90;;;;;;5030188;28;20447;-46
2022/03/02 00:47:41;;;;;;;42.70;26.70;;;4.40;99.90;;;;;;5029162;28;20030;-48
2022/03/02 00:50:07;;;;;;;42.13;25.65;;;4.40;99.90;;;;;;5030342;28;20052;-46
2022/03/02 00:52:34;;;;;;;40.03;24.42;;;4.40;99.90;;;;;;5029840;28;20088;-46
2022/03/02 00:55:00;;;;;;;46.17;27.50;;;4.40;99.90;;;;;;5029973;28;20480;-47
2022/03/02 00:57:26;;;;;;;60.92;27.98;;;4.40;99.90;;;;;;5030205;28;20116;-46
2022/03/02 00:59:51;;;;;;;46.03;27.55;;;4.40;99.90;;;;;;5029947;28;20849;-48
2022/03/02 01:02:17;;;;;;;44.05;27.25;;;4.70;99.90;;;;;;5029872;28;20046;-46
2022/03/02 01:04:43;;;;;;;42.55;27.27;;;5.60;99.90;;;;;;5030244;28;20073;-47
2022/03/02 01:07:08;;;;;;;49.75;28.50;;;4.30;99.90;;;;;;5030852;28;20049;-48
2022/03/02 01:09:35;;;;;;;44.17;25.23;;;4.40;99.90;;;;;;5033756;28;20131;-46
2022/03/02 01:12:01;;;;;;;44.65;26.25;;;4.40;99.90;;;;;;5033527;28;20085;-47
2022/03/02 01:14:26;;;;;;;47.65;28.88;;;5.20;99.90;;;;;;5033911;28;20042;-47
2022/03/02 01:16:52;;;;;;;47.40;28.65;;;4.40;99.90;;;;;;5034055;28;20041;-47
2022/03/02 01:19:18;;;;;;;46.92;28.17;;;4.00;99.90;;;;;;5033711;28;20049;-48
2022/03/02 01:21:43;;;;;;;49.35;29.45;;;4.30;99.90;;;;;;5033779;28;20099;-47
2022/03/02 01:24:09;;;;;;;47.05;28.85;;;4.30;99.90;;;;;;5033753;28;20034;-47
2022/03/02 01:26:36;;;;;;;45.67;27.25;;;4.30;99.90;;;;;;5033390;28;20045;-48
2022/03/02 01:29:03;;;;;;;48.38;27.23;;;4.30;99.90;;;;;;5033662;28;20033;-46
2022/03/02 01:31:29;;;;;;;52.10;28.52;;;4.20;99.90;;;;;;5033030;28;20480;-47
2022/03/02 01:33:55;;;;;;;52.50;30.27;;;4.30;99.90;;;;;;5033441;28;20128;-47
2022/03/02 01:36:22;;;;;;;54.28;30.45;;;4.20;99.90;;;;;;5033423;28;20049;-49
2022/03/02 01:38:48;;;;;;;51.80;30.48;;;4.20;99.90;;;;;;5033679;28;20037;-47
2022/03/02 01:41:19;;;;;;;52.22;30.65;;;4.20;99.90;;;;;;5033533;28;20068;-47
2022/03/02 01:43:46;;;;;;;48.67;28.95;;;4.20;99.90;;;;;;5033683;28;20041;-46
2022/03/02 01:46:12;;;;;;;53.75;31.90;;;4.10;99.90;;;;;;5033623;28;20038;-48
2022/03/02 01:48:39;;;;;;;51.92;31.48;;;5.20;99.90;;;;;;5033385;28;20051;-49
2022/03/02 01:51:05;;;;;;;52.25;31.55;;;4.20;99.90;;;;;;5033188;28;20557;-50
2022/03/02 01:53:31;;;;;;;48.95;30.35;;;4.00;99.90;;;;;;5033122;28;20049;-48
2022/03/02 01:55:58;;;;;;;53.40;30.45;;;4.10;99.90;;;;;;5033174;28;20361;-46
2022/03/02 01:58:25;;;;;;;55.80;31.17;;;4.10;99.90;;;;;;5031485;28;20053;-47
2022/03/02 02:00:51;;;;;;;52.50;31.73;;;4.10;99.90;;;;;;5032904;28;20148;-47
2022/03/02 02:03:17;;;;;;;52.42;30.40;;;4.10;99.90;;;;;;5032633;28;20049;-46
2022/03/02 02:05:43;;;;;;;56.72;33.40;;;4.00;99.90;;;;;;5032509;28;20037;-47
2022/03/02 02:08:09;;;;;;;60.30;33.85;;;4.00;99.90;;;;;;5032576;28;20403;-47
2022/03/02 02:10:35;;;;;;;56.90;32.58;;;4.00;99.90;;;;;;5032157;28;20140;-47
2022/03/02 02:13:01;;;;;;;55.13;33.05;;;4.00;99.90;;;;;;5032849;28;20183;-47
2022/03/02 02:15:27;;;;;;;55.20;33.60;;;4.00;99.90;;;;;;5030814;28;20053;-47
2022/03/02 02:17:52;;;;;;;54.58;32.78;;;4.00;99.90;;;;;;5032538;28;20037;-47
2022/03/02 02:20:18;;;;;;;53.00;31.13;;;4.00;99.90;;;;;;5031659;28;20172;-47
2022/03/02 02:22:46;;;;;;;55.58;32.88;;;4.00;99.90;;;;;;5032290;28;20057;-45
2022/03/02 02:25:12;;;;;;;57.85;34.88;;;4.00;99.90;;;;;;5032562;28;20034;-47
2022/03/02 02:27:40;;;;;;;59.17;33.08;;;4.00;99.90;;;;;;5032175;28;20056;-46
2022/03/02 02:30:06;;;;;;;55.40;31.65;;;3.90;99.90;;;;;;5032574;28;20049;-49
2022/03/02 02:32:32;;;;;;;59.95;34.38;;;3.90;99.90;;;;;;5032205;28;20060;-48
2022/03/02 02:34:58;;;;;;;56.58;33.58;;;5.00;99.90;;;;;;5032435;28;20499;-48
2022/03/02 02:37:26;;;;;;;57.70;34.63;;;3.90;99.90;;;;;;5032519;28;20103;-47
2022/03/02 02:39:58;;;;;;;58.40;33.88;;;3.90;99.90;;;;;;5030766;28;20045;-47
2022/03/02 02:42:24;;;;;;;58.38;34.17;;;3.90;99.90;;;;;;5032067;28;20132;-47
2022/03/02 02:44:50;;;;;;;56.70;35.25;;;3.90;99.90;;;;;;5031524;28;20077;-46
2022/03/02 02:47:15;;;;;;;54.70;32.38;;;3.90;99.90;;;;;;5032102;28;20554;-47
2022/03/02 02:49:41;;;;;;;53.42;32.65;;;3.90;99.90;;;;;;5031807;28;20044;-47
2022/03/02 02:52:07;;;;;;;58.53;34.00;;;3.90;99.90;;;;;;5031755;28;20081;-46
2022/03/02 02:54:33;;;;;;;59.22;35.33;;;3.90;99.90;;;;;;5031401;28;20037;-46
2022/03/02 02:56:58;;;;;;;57.63;33.55;;;3.90;99.90;;;;;;5031762;28;20041;-48
2022/03/02 02:59:24;;;;;;;63.13;34.65;;;3.90;99.90;;;;;;5031753;28;20087;-45
2022/03/02 03:01:51;;;;;;;57.45;32.45;;;3.90;99.90;;;;;;5030298;28;20053;-49
2022/03/02 03:04:16;;;;;;;52.65;32.17;;;3.80;99.90;;;;;;5032022;28;20120;-47
2022/03/02 03:06:42;;;;;;;56.63;34.17;;;3.80;99.90;;;;;;5031136;28;20121;-47
2022/03/02 03:09:08;;;;;;;56.90;33.40;;;3.80;99.90;;;;;;5031703;28;20083;-47
2022/03/02 03:11:38;;;;;;;57.20;32.90;;;3.80;99.90;;;;;;5031071;28;20507;-50
2022/03/02 03:14:12;;;;;;;58.13;33.28;;;3.80;99.90;;;;;;5031371;28;20047;-47
2022/03/02 03:16:39;;;;;;;61.58;34.60;;;3.80;99.90;;;;;;5031308;28;20037;-47
2022/03/02 03:19:05;;;;;;;61.22;33.70;;;3.70;99.90;;;;;;5031458;28;20080;-48
2022/03/02 03:21:31;;;;;;;59.58;35.42;;;3.70;99.90;;;;;;5031273;28;20081;-47
2022/03/02 03:23:56;;;;;;;63.83;34.60;;;3.70;99.90;;;;;;5031202;28;20466;-50
2022/03/02 03:26:22;;;;;;;56.55;33.63;;;3.60;99.90;;;;;;5031186;28;20038;-48
2022/03/02 03:28:48;;;;;;;59.47;34.30;;;3.60;99.90;;;;;;5031060;28;20045;-47
2022/03/02 03:31:14;;;;;;;59.00;32.85;;;3.60;99.90;;;;;;5030736;28;20068;-47
2022/03/02 03:33:40;;;;;;;61.22;34.30;;;3.60;99.90;;;;;;5031067;28;20103;-48
2022/03/02 03:36:05;;;;;;;61.30;34.38;;;3.60;99.90;;;;;;5030881;28;20081;-46
2022/03/02 03:38:31;;;;;;;57.78;33.55;;;3.30;99.90;;;;;;5031099;28;20041;-47
2022/03/02 03:40:57;;;;;;;55.58;32.75;;;3.60;99.90;;;;;;5030681;28;20060;-47
2022/03/02 03:43:23;;;;;;;60.50;35.20;;;3.60;99.90;;;;;;5030955;28;20041;-49
2022/03/02 03:45:49;;;;;;;63.25;35.03;;;3.60;99.90;;;;;;5030635;28;20137;-50
2022/03/02 03:48:15;;;;;;;67.32;36.28;;;3.60;99.90;;;;;;5030677;28;20666;-46
2022/03/02 03:50:41;;;;;;;59.60;34.00;;;3.50;99.90;;;;;;5030913;28;20033;-47
2022/03/02 03:53:10;;;;;;;60.05;35.30;;;3.60;99.90;;;;;;5031036;28;20372;-47
2022/03/02 03:55:35;;;;;;;65.28;34.45;;;3.50;99.90;;;;;;5030597;28;20554;-46
2022/03/02 03:58:01;;;;;;;61.42;35.72;;;3.50;99.90;;;;;;5029608;28;20053;-47
2022/03/02 04:00:27;;;;;;;57.13;34.72;;;3.50;99.90;;;;;;5030980;28;20480;-47
2022/03/02 04:02:52;;;;;;;61.88;36.22;;;3.50;99.90;;;;;;5030518;28;20037;-46
2022/03/02 04:05:18;;;;;;;61.75;35.97;;;3.40;99.90;;;;;;5030745;28;20454;-46
2022/03/02 04:07:45;;;;;;;57.28;34.88;;;3.40;99.90;;;;;;5030389;28;20045;-48
2022/03/02 04:10:13;;;;;;;57.25;33.88;;;3.40;99.90;;;;;;5030714;28;20045;-46
2022/03/02 04:12:38;;;;;;;62.63;35.67;;;3.30;99.90;;;;;;5030237;28;20061;-49
2022/03/02 04:15:05;;;;;;;61.80;35.88;;;3.30;99.90;;;;;;5030544;28;20064;-48
2022/03/02 04:17:31;;;;;;;61.20;35.40;;;3.30;99.90;;;;;;5030434;28;20065;-50
2022/03/02 04:19:56;;;;;;;66.22;36.33;;;3.20;99.90;;;;;;5030347;28;20559;-47
2022/03/02 04:22:22;;;;;;;57.60;34.42;;;3.00;99.90;;;;;;5030715;28;20103;-48
2022/03/02 04:24:48;;;;;;;60.20;34.10;;;3.10;99.90;;;;;;5030937;28;20046;-48
2022/03/02 04:27:14;;;;;;;61.88;35.47;;;3.10;99.90;;;;;;5030507;28;20163;-46
2022/03/02 04:29:40;;;;;;;60.63;35.47;;;3.00;99.90;;;;;;5030428;28;20049;-49
2022/03/02 04:32:06;;;;;;;62.97;36.20;;;2.90;99.90;;;;;;5030244;28;20391;-48
2022/03/02 04:34:32;;;;;;;63.28;36.55;;;2.80;99.90;;;;;;5030372;28;20042;-45
2022/03/02 04:36:57;;;;;;;64.38;36.75;;;2.70;99.90;;;;;;5029879;28;20047;-48
2022/03/02 04:39:23;;;;;;;67.90;36.63;;;2.60;99.90;;;;;;5030313;28;20080;-48
2022/03/02 04:41:49;;;;;;;64.53;36.78;;;2.50;99.90;;;;;;5030310;28;20391;-50
2022/03/02 04:44:15;;;;;;;67.20;37.20;;;2.40;99.90;;;;;;5034362;28;20037;-48
2022/03/02 04:46:40;;;;;;;65.53;36.42;;;2.30;99.90;;;;;;5034181;28;20547;-46
2022/03/02 04:49:13;;;;;;;62.92;35.22;;;2.20;99.90;;;;;;5033963;28;20026;-48
2022/03/02 04:51:42;;;;;;;64.75;35.88;;;2.00;99.90;;;;;;5034132;28;20509;-47
2022/03/02 04:54:08;;;;;;;63.38;36.38;;;1.90;99.90;;;;;;5033623;28;20045;-47
2022/03/02 04:56:34;;;;;;;62.90;34.97;;;1.80;99.90;;;;;;5034148;28;20140;-47
2022/03/02 04:59:03;;;;;;;70.25;37.35;;;1.70;99.90;;;;;;5033728;28;20042;-48
2022/03/02 05:01:30;;;;;;;70.75;36.88;;;1.60;99.90;;;;;;5034014;28;20041;-48
2022/03/02 05:03:55;;;;;;;69.40;37.10;;;1.50;99.90;;;;;;5033702;28;20052;-46
2022/03/02 05:06:21;;;;;;;71.38;39.78;;;1.40;99.90;;;;;;5033877;28;20041;-49
2022/03/02 05:08:47;;;;;;;73.25;39.78;;;1.40;99.90;;;;;;5033437;28;20045;-48
2022/03/02 05:11:13;;;;;;;75.18;37.80;;;1.30;99.90;;;;;;5033391;28;20172;-46
2022/03/02 05:13:38;;;;;;;76.30;38.53;;;1.20;99.90;;;;;;5033491;28;20058;-46
2022/03/02 05:16:04;;;;;;;75.55;41.35;;;1.10;99.90;;;;;;5033279;28;20049;-48
2022/03/02 05:18:30;;;;;;;74.40;41.25;;;1.10;99.90;;;;;;5033510;28;20046;-46
2022/03/02 05:20:56;;;;;;;86.88;41.83;;;1.00;99.90;;;;;;5033410;28;20048;-48
2022/03/02 05:23:21;;;;;;;79.43;40.17;;;1.00;99.90;;;;;;5033851;28;20120;-46
2022/03/02 05:25:47;;;;;;;86.72;39.83;;;0.90;99.90;;;;;;5033752;28;20056;-47
2022/03/02 05:28:12;;;;;;;84.35;38.03;;;0.80;99.90;;;;;;5033282;28;20405;-46
2022/03/02 05:30:38;;;;;;;88.78;40.38;;;0.70;99.90;;;;;;5033535;28;20056;-47
2022/03/02 05:33:04;;;;;;;89.70;40.90;;;0.70;99.90;;;;;;5033160;28;20077;-46
2022/03/02 05:35:30;;;;;;;80.07;39.78;;;0.60;99.90;;;;;;5033404;28;20045;-47
2022/03/02 05:37:55;;;;;;;87.00;40.17;;;0.60;99.90;;;;;;5033185;28;20041;-47
2022/03/02 05:40:21;;;;;;;90.60;40.67;;;0.60;99.90;;;;;;5032152;28;20488;-48
2022/03/02 05:42:47;;;;;;;99.13;42.33;;;0.50;99.90;;;;;;5033392;28;20064;-46
2022/03/02 05:45:13;;;;;;;89.85;40.95;;;0.50;99.90;;;;;;5033033;28;20377;-47
2022/03/02 05:47:39;;;;;;;103.40;43.90;;;0.40;99.90;;;;;;5032788;28;20566;-46
2022/03/02 05:50:07;;;;;;;96.90;41.55;;;0.30;99.90;;;;;;5032480;28;20072;-48
2022/03/02 05:52:33;;;;;;;88.72;41.10;;;0.30;99.90;;;;;;5032938;28;20285;-46
2022/03/02 05:54:59;;;;;;;97.55;41.08;;;0.20;99.90;;;;;;5031565;28;20041;-46
2022/03/02 05:57:24;;;;;;;99.25;42.00;;;0.20;99.90;;;;;;5032568;28;20075;-48
2022/03/02 05:59:51;;;;;;;100.70;42.20;;;0.20;99.90;;;;;;5032903;28;20046;-46
2022/03/02 06:02:17;;;;;;;95.10;41.05;;;0.10;99.90;;;;;;5032592;28;20360;-47
2022/03/02 06:04:43;;;;;;;107.75;43.58;;;0.10;99.90;;;;;;5032831;28;20037;-45
2022/03/02 06:07:09;;;;;;;102.93;42.75;;;0.00;99.90;;;;;;5032586;28;20045;-47
2022/03/02 06:09:35;;;;;;;101.63;42.50;;;0.00;99.90;;;;;;5032816;28;20049;-46
2022/03/02 06:12:01;;;;;;;102.40;41.67;;;0.00;99.90;;;;;;5032051;28;20511;-47
2022/03/02 06:14:26;;;;;;;110.75;44.65;;;-0.10;99.90;;;;;;5032512;28;20408;-47
2022/03/02 06:16:52;;;;;;;94.68;41.33;;;-0.10;99.90;;;;;;5032727;28;20450;-45
2022/03/02 06:19:18;;;;;;;104.20;42.80;;;-0.20;99.90;;;;;;5032011;28;20069;-47
2022/03/02 06:21:47;;;;;;;98.70;41.92;;;-0.30;99.90;;;;;;5032858;28;20045;-46
2022/03/02 06:24:14;;;;;;;102.80;44.00;;;-0.30;99.90;;;;;;5032107;28;20045;-48
2022/03/02 06:26:41;;;;;;;101.90;43.35;;;-0.40;99.90;;;;;;5032463;28;20387;-45
2022/03/02 06:29:07;;;;;;;115.25;42.03;;;-0.40;99.90;;;;;;5032217;28;20072;-46
2022/03/02 06:31:33;;;;;;;106.25;43.13;;;-0.50;99.90;;;;;;5032367;28;20083;-46
2022/03/02 06:34:00;;;;;;;110.53;44.08;;;-0.50;99.90;;;;;;5031869;28;20042;-46
2022/03/02 06:36:26;;;;;;;114.53;44.38;;;-0.60;99.90;;;;;;5032228;28;20489;-50
2022/03/02 06:38:51;;;;;;;112.72;44.03;;;-0.60;99.90;;;;;;5032406;28;20121;-46
2022/03/02 06:41:36;;;;;;;115.32;45.90;;;-0.60;99.90;;;;;;5031674;28;20045;-47
2022/03/02 06:44:04;;;;;;;107.47;45.80;;;-0.40;99.90;;;;;;5032250;28;20042;-46
2022/03/02 06:46:40;;;;;;;118.72;47.33;;;-0.30;99.90;;;;;;5032294;28;20073;-48
2022/03/02 06:49:26;;;;;;;117.80;46.72;;;-0.20;99.90;;;;;;5031788;28;20041;-47
2022/03/02 06:51:59;;;;;;;114.38;47.63;;;0.00;99.90;;;;;;5031758;28;20045;-45
2022/03/02 06:54:29;;;;;;;113.85;45.65;;;0.30;99.90;;;;;;5030908;28;20372;-47
2022/03/02 06:56:57;;;;;;;104.45;45.00;;;0.30;99.90;;;;;;5032110;28;20454;-46
2022/03/02 06:59:44;;;;;;;111.15;47.33;;;0.40;99.90;;;;;;5031169;28;20084;-47
2022/03/02 07:02:15;;;;;;;95.13;43.15;;;0.50;99.90;;;;;;5031457;28;20046;-50
2022/03/02 07:04:43;;;;;;;107.97;45.97;;;0.50;99.90;;;;;;5031479;28;20053;-49
2022/03/02 07:07:11;;;;;;;97.70;42.97;;;0.70;99.90;;;;;;5031454;28;20033;-45
2022/03/02 07:09:38;;;;;;;97.40;45.10;;;-0.50;99.90;;;;;;5031186;28;20487;-48
2022/03/02 07:12:05;;;;;;;89.55;43.88;;;1.00;99.90;;;;;;5030961;28;20061;-46
2022/03/02 07:14:33;;;;;;;87.35;43.22;;;1.00;99.90;;;;;;5031169;28;20080;-48
2022/03/02 07:17:01;;;;;;;87.60;43.08;;;1.10;99.90;;;;;;5031514;28;20080;-47
2022/03/02 07:19:27;;;;;;;91.00;40.67;;;1.20;99.90;;;;;;5030815;28;20037;-45
2022/03/02 07:21:56;;;;;;;81.10;40.15;;;1.30;99.90;;;;;;5031448;28;20138;-46
2022/03/02 07:24:23;;;;;;;81.30;40.20;;;1.40;99.90;;;;;;5030652;28;20543;-46
2022/03/02 07:26:56;;;;;;;83.85;41.13;;;1.60;99.90;;;;;;5031155;28;20049;-47
2022/03/02 07:29:26;;;;;;;80.30;38.50;;;1.60;99.90;;;;;;5031007;28;20045;-47
2022/03/02 07:31:56;;;;;;;78.18;39.17;;;1.70;99.90;;;;;;5031182;28;20128;-46
2022/03/02 07:34:24;;;;;;;75.57;38.78;;;1.60;99.90;;;;;;5031028;28;20128;-46
2022/03/02 07:36:50;;;;;;;74.63;37.92;;;1.90;99.90;;;;;;5031330;28;20047;-47
2022/03/02 07:39:16;;;;;;;79.20;38.53;;;1.90;99.90;;;;;;5031006;28;20112;-48
2022/03/02 07:41:42;;;;;;;78.30;40.40;;;2.10;99.90;;;;;;5030891;28;20050;-45
2022/03/02 07:44:08;;;;;;;70.72;37.28;;;2.40;99.90;;;;;;5030725;28;20041;-47
2022/03/02 07:46:34;;;;;;;69.65;37.08;;;2.40;99.90;;;;;;5031028;28;20056;-47
2022/03/02 07:49:00;;;;;;;71.15;38.13;;;2.40;99.90;;;;;;5030890;28;20120;-46
2022/03/02 07:51:27;;;;;;;61.30;33.47;;;2.50;99.90;;;;;;5030359;28;20448;-49
2022/03/02 07:53:59;;;;;;;65.40;35.33;;;2.60;99.90;;;;;;5030618;28;20106;-48
2022/03/02 07:56:28;;;;;;;60.65;34.88;;;2.60;99.90;;;;;;5030302;28;20467;-52
2022/03/02 07:58:58;;;;;;;61.15;33.55;;;2.90;99.90;;;;;;5029627;28;20061;-51
2022/03/02 08:01:25;;;;;;;54.55;33.03;;;3.30;99.90;;;;;;5031087;28;20381;-53
2022/03/02 08:03:51;;;;;;;54.38;31.50;;;3.30;99.90;;;;;;5030474;28;20073;-52
2022/03/02 08:06:18;;;;;;;56.47;31.92;;;3.80;99.90;;;;;;5030486;28;20052;-53
2022/03/02 08:08:44;;;;;;;54.22;29.30;;;3.90;99.90;;;;;;5030747;28;20128;-52
2022/03/02 08:11:10;;;;;;;51.33;29.52;;;4.20;99.90;;;;;;5030484;28;20096;-54
2022/03/02 08:13:36;;;;;;;52.13;28.35;;;4.40;99.90;;;;;;5030819;28;20445;-52
2022/03/02 08:16:02;;;;;;;51.05;28.85;;;4.60;99.90;;;;;;5030276;28;20038;-53
2022/03/02 08:18:29;;;;;;;49.88;29.92;;;4.90;99.90;;;;;;5029619;28;20113;-53
2022/03/02 08:20:57;;;;;;;46.85;28.92;;;5.30;99.90;;;;;;5030560;28;20049;-53
2022/03/02 08:23:27;;;;;;;46.58;27.27;;;5.60;99.90;;;;;;5028765;28;20069;-52
2022/03/02 08:25:54;;;;;;;48.65;26.52;;;6.00;99.90;;;;;;5030276;28;20037;-53
2022/03/02 08:28:21;;;;;;;41.70;25.73;;;6.40;99.90;;;;;;5030218;28;20475;-52
2022/03/02 08:30:50;;;;;;;42.30;24.85;;;6.60;99.90;;;;;;5030089;28;20045;-52
2022/03/02 08:33:27;;;;;;;42.67;26.17;;;6.70;99.90;;;;;;5029534;28;20490;-52
2022/03/02 08:35:54;;;;;;;37.55;24.30;;;7.00;99.90;;;;;;5030310;28;20041;-52
2022/03/02 08:38:21;;;;;;;38.67;22.95;;;7.70;99.90;;;;;;5030053;28;20384;-53
2022/03/02 08:40:47;;;;;;;39.72;23.60;;;8.20;99.90;;;;;;5029783;28;20046;-51
2022/03/02 08:43:15;;;;;;;35.50;22.73;;;9.00;99.90;;;;;;5030382;28;20042;-50
2022/03/02 08:45:45;;;;;;;38.38;23.33;;;9.60;99.90;;;;;;5030470;28;20037;-54
2022/03/02 08:48:16;;;;;;;33.58;22.60;;;10.70;99.90;;;;;;5030537;28;20045;-54
2022/03/02 08:50:42;;;;;;;34.55;22.63;;;11.20;99.90;;;;;;5030227;28;20120;-53
2022/03/02 08:53:12;;;;;;;33.53;22.88;;;11.80;99.90;;;;;;5030352;28;20361;-51
2022/03/02 08:55:39;;;;;;;32.97;22.50;;;12.20;99.90;;;;;;5030261;28;20073;-52
2022/03/02 08:58:05;;;;;;;32.00;22.25;;;12.90;99.90;;;;;;5030216;28;20045;-53
2022/03/02 09:00:33;;;;;;;35.00;22.90;;;13.50;99.90;;;;;;5029571;28;20048;-52
2022/03/02 09:03:01;;;;;;;33.67;22.63;;;13.60;99.90;;;;;;5030266;28;20108;-53
2022/03/02 09:05:28;;;;;;;36.83;24.08;;;13.30;99.90;;;;;;5029640;28;20546;-53
2022/03/02 09:07:54;;;;;;;34.95;23.60;;;12.90;98.10;;;;;;5030222;28;20096;-52
2022/03/02 09:10:20;;;;;;;34.08;23.92;;;12.20;98.20;;;;;;5028079;28;20399;-52
2022/03/02 09:12:46;;;;;;;36.58;23.73;;;12.10;99.50;;;;;;5029897;28;20050;-52
2022/03/02 09:15:12;;;;;;;34.75;23.02;;;11.10;99.90;;;;;;5030233;28;20052;-52
2022/03/02 09:17:38;;;;;;;33.17;21.75;;;11.40;99.90;;;;;;5030097;28;20735;-53
2022/03/02 09:20:06;;;;;;;31.15;22.88;;;12.40;99.80;;;;;;5029965;28;20490;-53
2022/03/02 09:22:35;;;;;;;32.15;21.10;;;12.40;97.40;;;;;;5029926;28;20053;-51
2022/03/02 09:25:01;;;;;;;32.33;22.15;;;12.30;96.70;;;;;;5030325;28;20046;-52
2022/03/02 09:27:30;;;;;;;32.20;22.20;;;12.00;96.70;;;;;;5030163;28;20041;-53
2022/03/02 09:30:02;;;;;;;33.30;23.27;;;11.30;97.10;;;;;;5033114;28;20049;-54
2022/03/02 09:32:30;;;;;;;;;;;11.30;96.90;;;;;;5033760;28;20052;-54
2022/03/02 09:35:00;;;;;;;33.00;23.63;;;11.30;95.30;;;;;;5033275;28;20287;-54
2022/03/02 09:37:27;;;;;;;33.42;23.40;;;11.00;95.80;;;;;;5033355;28;20047;-53
2022/03/02 09:39:54;;;;;;;35.55;22.20;;;11.20;96.70;;;;;;5033145;28;20365;-54
2022/03/02 09:42:26;;;;;;;34.72;23.48;;;11.30;97.30;;;;;;5029809;28;20041;-49
2022/03/02 09:45:05;;;;;;;34.60;22.63;;;10.20;97.40;;;;;;5025770;28;20052;-52
2022/03/02 09:47:36;;;;;;;32.28;23.15;;;10.00;99.00;;;;;;5028707;28;20048;-52
2022/03/02 09:50:03;;;;;;;35.55;22.95;;;10.10;99.90;;;;;;5032828;28;20046;-49
2022/03/02 09:52:34;;;;;;;33.17;22.60;;;10.00;99.90;;;;;;5032699;28;20417;-46
2022/03/02 09:55:00;;;;;;;35.03;22.58;;;10.10;99.80;;;;;;5033234;28;20373;-53
2022/03/02 09:57:27;;;;;;;34.40;22.52;;;10.20;99.90;;;;;;5033095;28;20175;-45
2022/03/02 09:59:56;;;;;;;31.02;21.83;;;10.60;99.70;;;;;;5032941;28;20049;-49
2022/03/02 10:02:38;;;;;;;34.10;22.45;;;10.80;97.10;;;;;;5033709;28;20045;-45
2022/03/02 10:05:16;;;;;;;32.97;22.63;;;10.60;98.00;;;;;;5033596;28;20424;-45
2022/03/02 10:08:03;;;;;;;35.65;23.30;;;10.20;98.50;;;;;;5033666;28;20106;-47
2022/03/02 10:10:36;;;;;;;32.22;23.02;;;10.00;98.10;;;;;;5034072;28;20045;-48
2022/03/02 10:13:08;;;;;;;31.63;21.13;;;10.00;99.70;;;;;;5033578;28;20132;-54
2022/03/02 10:15:35;;;;;;;33.38;22.73;;;10.60;99.90;;;;;;5032613;28;20045;-50
2022/03/02 10:18:02;;;;;;;32.13;21.83;;;11.00;99.20;;;;;;5032374;28;20041;-53
2022/03/02 10:20:31;;;;;;;34.45;23.27;;;10.90;97.60;;;;;;5032555;28;20387;-46
2022/03/02 10:23:18;;;;;;;30.85;21.45;;;11.10;96.90;;;;;;5034939;28;20030;-46
2022/03/02 10:25:46;;;;;;;31.40;21.42;;;11.10;96.40;;;;;;5017110;28;20038;-52
2022/03/02 10:28:19;;;;;;;28.15;19.77;;;11.10;96.60;;;;;;5033699;28;20087;-49
2022/03/02 10:31:03;;;;;;;30.77;21.90;;;11.30;95.60;;;;;;5033380;28;20038;-48
2022/03/02 10:33:36;;;;;;;30.35;20.75;;;11.40;95.00;;;;;;5032259;28;20399;-45
2022/03/02 10:36:06;;;;;;;30.13;20.13;;;11.60;95.20;;;;;;5033536;28;20049;-47
2022/03/02 10:38:55;;;;;;;30.80;19.45;;;11.60;95.50;;;;;;5033821;28;20047;-50
2022/03/02 10:41:22;;;;;;;28.95;18.02;;;11.50;94.90;;;;;;5015454;28;20499;-48
2022/03/02 10:43:50;;;;;;;31.13;19.10;;;11.50;94.10;;;;;;5032440;28;20048;-45
2022/03/02 10:46:24;;;;;;;30.42;19.15;;;12.00;93.90;;;;;;5030948;28;20044;-44
2022/03/02 10:49:05;;;;;;;29.73;20.55;;;12.40;92.30;;;;;;5014526;28;20084;-45
2022/03/02 10:51:34;;;;;;;25.60;18.30;;;12.10;91.20;;;;;;5014557;28;20049;-44
2022/03/02 10:54:06;;;;;;;30.45;19.60;;;12.10;91.70;;;;;;5015290;28;20041;-45
2022/03/02 10:56:40;;;;;;;27.73;19.23;;;12.10;91.00;;;;;;5030510;28;20049;-50
2022/03/02 10:59:16;;;;;;;28.50;19.73;;;12.10;90.50;;;;;;4998414;28;20049;-46
2022/03/02 11:01:44;;;;;;;27.48;18.50;;;12.20;90.00;;;;;;5031573;28;20518;-50
2022/03/02 11:04:10;;;;;;;29.98;19.13;;;12.80;90.20;;;;;;5031413;28;20121;-46
2022/03/02 11:06:38;;;;;;;28.33;19.05;;;11.60;90.30;;;;;;5031634;28;20488;-45
2022/03/02 11:09:05;;;;;;;29.13;19.05;;;11.20;90.60;;;;;;5031781;28;20124;-52
2022/03/02 11:11:38;;;;;;;27.77;18.75;;;10.80;90.50;;;;;;5031280;28;20060;-47
2022/03/02 11:14:05;;;;;;;32.63;20.50;;;10.60;90.40;;;;;;5032197;28;20262;-53
2022/03/02 11:16:31;;;;;;;29.70;19.42;;;10.40;90.80;;;;;;5031101;28;20126;-46
2022/03/02 11:19:11;;;;;;;28.65;20.10;;;10.00;91.10;;;;;;5031120;28;20033;-49
2022/03/02 11:21:41;;;;;;;31.35;20.20;;;9.60;91.70;;;;;;5030951;28;20053;-48
2022/03/02 11:24:14;;;;;;;29.58;19.85;;;9.40;92.40;;;;;;5030885;28;20041;-48
2022/03/02 11:26:43;;;;;;;29.65;18.60;;;9.20;92.50;;;;;;5014041;28;20037;-47
2022/03/02 11:29:19;;;;;;;29.00;19.60;;;9.00;92.90;;;;;;5030756;28;20116;-52
2022/03/02 11:31:51;;;;;;;30.40;20.38;;;8.90;93.50;;;;;;5030642;28;20451;-52
2022/03/02 11:34:22;;;;;;;33.25;18.48;;;8.80;93.60;;;;;;5030760;28;20048;-46
2022/03/02 11:36:53;;;;;;;29.40;19.17;;;8.60;93.70;;;;;;5029946;28;20041;-49
2022/03/02 11:39:24;;;;;;;30.92;18.42;;;9.10;94.30;;;;;;5030796;28;20052;-51
2022/03/02 11:42:01;;;;;;;27.60;17.52;;;8.60;94.20;;;;;;5030205;28;20155;-52
2022/03/02 11:44:35;;;;;;;29.92;17.98;;;8.60;93.80;;;;;;5030548;28;20049;-47
2022/03/02 11:47:09;;;;;;;25.98;18.05;;;8.50;93.60;;;;;;5030096;28;20124;-51
2022/03/02 11:50:08;;;;;;;31.02;19.05;;;8.50;93.50;;;;;;5030648;28;20495;-53
2022/03/02 11:52:36;;;;;;;29.38;17.25;;;8.50;93.70;;;;;;5033448;28;20053;-50
2022/03/02 11:55:06;;;;;;;26.52;18.40;;;8.50;93.70;;;;;;5030856;28;20049;-50
2022/03/02 11:57:39;;;;;;;28.52;18.40;;;8.40;93.70;;;;;;5031574;28;20045;-48
2022/03/02 12:00:19;;;;;;;30.40;18.90;;;8.50;93.80;;;;;;5030973;28;20438;-55
2022/03/02 12:02:52;;;;;;;27.80;16.88;;;8.50;94.10;;;;;;5030519;28;20041;-56
2022/03/02 12:05:21;;;;;;;30.42;16.50;;;8.60;93.80;;;;;;5030614;28;20045;-54
2022/03/02 12:07:51;;;;;;;24.73;16.10;;;8.60;93.60;;;;;;5030020;28;20553;-57
2022/03/02 12:10:24;;;;;;;26.63;16.42;;;8.60;93.90;;;;;;5030598;28;20402;-55
2022/03/02 12:12:51;;;;;;;25.45;15.23;;;8.60;92.80;;;;;;5029935;28;20065;-55
2022/03/02 12:15:19;;;;;;;24.27;15.63;;;8.60;93.20;;;;;;5030361;28;20053;-55
2022/03/02 12:17:46;;;;;;;23.08;14.27;;;9.20;93.00;;;;;;5029935;28;20483;-56
2022/03/02 12:20:22;;;;;;;25.52;16.40;;;9.10;92.80;;;;;;5030137;28;20063;-53
2022/03/02 12:22:51;;;;;;;26.50;15.60;;;8.80;92.10;;;;;;5029788;28;20081;-55
2022/03/02 12:25:19;;;;;;;25.02;16.25;;;8.70;92.20;;;;;;5030354;28;20067;-56
2022/03/02 12:27:56;;;;;;;27.88;16.65;;;8.70;92.10;;;;;;5029822;28;20041;-55
2022/03/02 12:30:22;;;;;;;28.20;16.33;;;8.80;92.50;;;;;;5029972;28;20495;-53
2022/03/02 12:32:51;;;;;;;25.90;16.55;;;9.00;92.60;;;;;;5030015;28;20045;-56
2022/03/02 12:35:19;;;;;;;24.90;15.75;;;8.70;92.00;;;;;;5030241;28;20860;-53
2022/03/02 12:37:46;;;;;;;32.47;16.88;;;8.70;92.20;;;;;;5029869;28;20124;-57